createdAt,value
2018-11-07T00:01:38.943Z,99775.55
2018-11-07T00:04:05.883Z,99780.59
2018-11-07T00:06:32.827Z,99777.33
2018-11-07T00:08:59.775Z,99779.64
2018-11-07T00:11:26.730Z,99777.34
2018-11-07T00:13:53.677Z,99783.59
2018-11-07T00:16:20.616Z,99782.72
2018-11-07T00:18:47.582Z,99787.75
2018-11-07T00:21:14.494Z,99777.00
2018-11-07T00:23:41.447Z,99775.91
2018-11-07T00:26:08.397Z,99775.15
2018-11-07T00:28:36.342Z,99780.10
2018-11-07T00:31:04.256Z,99783.14
2018-11-07T00:33:31.179Z,99792.29
2018-11-07T00:35:58.135Z,99795.27
2018-11-07T00:38:25.087Z,99795.66
2018-11-07T00:40:52.007Z,99799.21
2018-11-07T00:43:18.947Z,99804.92
2018-11-07T00:45:45.898Z,99795.66
2018-11-07T00:48:12.834Z,99797.52
2018-11-07T00:50:39.790Z,99801.80
2018-11-07T00:53:06.731Z,99800.98
2018-11-07T00:55:33.673Z,99799.27
2018-11-07T00:58:00.628Z,99808.22
2018-11-07T01:00:27.578Z,99807.73
2018-11-07T01:02:54.518Z,99811.42
2018-11-07T01:05:21.444Z,99804.75
2018-11-07T01:07:48.411Z,99806.86
2018-11-07T01:10:15.358Z,99809.22
2018-11-07T01:12:42.784Z,99811.59
2018-11-07T01:15:10.422Z,99814.54
2018-11-07T01:17:37.334Z,99801.38
2018-11-07T01:20:04.973Z,99796.90
2018-11-07T01:22:31.956Z,99798.39
2018-11-07T01:24:59.070Z,99809.91
2018-11-07T01:27:25.929Z,99801.11
2018-11-07T01:29:52.900Z,99801.30
2018-11-07T01:32:19.828Z,99798.40
2018-11-07T01:34:46.740Z,99796.95
2018-11-07T01:37:13.723Z,99785.13
2018-11-07T01:39:40.623Z,99781.48
2018-11-07T01:42:07.651Z,99788.39
2018-11-07T01:44:34.535Z,99789.11
2018-11-07T01:47:01.471Z,99789.20
2018-11-07T01:49:28.402Z,99788.06
2018-11-07T01:51:55.358Z,99790.89
2018-11-07T01:54:22.304Z,99785.24
2018-11-07T01:56:49.323Z,99781.87
2018-11-07T01:59:16.283Z,99780.58
2018-11-07T02:01:43.227Z,99773.48
2018-11-07T02:04:10.194Z,99781.33
2018-11-07T02:06:37.156Z,99769.58
2018-11-07T02:09:06.771Z,99773.45
2018-11-07T02:11:33.674Z,99780.36
2018-11-07T02:14:00.619Z,99780.87
2018-11-07T02:16:27.565Z,99779.01
2018-11-07T02:18:54.534Z,99774.19
2018-11-07T02:21:21.455Z,99771.41
2018-11-07T02:23:48.406Z,99765.00
2018-11-07T02:26:15.391Z,99769.88
2018-11-07T02:28:42.294Z,99771.33
2018-11-07T02:31:09.252Z,99767.42
2018-11-07T02:33:36.184Z,99776.94
2018-11-07T02:36:03.044Z,99772.25
2018-11-07T02:38:29.946Z,99776.97
2018-11-07T02:40:56.915Z,99783.84
2018-11-07T02:43:23.875Z,99791.16
2018-11-07T02:45:50.794Z,99792.47
2018-11-07T02:48:17.764Z,99782.25
2018-11-07T02:50:44.694Z,99784.98
2018-11-07T02:53:11.678Z,99786.30
2018-11-07T02:55:38.575Z,99791.45
2018-11-07T02:58:05.519Z,99775.77
2018-11-07T03:00:32.470Z,99773.14
2018-11-07T03:02:59.404Z,99762.95
2018-11-07T03:05:26.350Z,99772.84
2018-11-07T03:07:53.299Z,99768.36
2018-11-07T03:10:20.262Z,99777.13
2018-11-07T03:12:47.190Z,99773.83
2018-11-07T03:15:14.171Z,99770.91
2018-11-07T03:17:41.087Z,99775.59
2018-11-07T03:20:09.173Z,99770.34
2018-11-07T03:22:36.098Z,99777.86
2018-11-07T03:25:03.068Z,99774.99
2018-11-07T03:27:29.982Z,99779.12
2018-11-07T03:29:56.930Z,99783.11
2018-11-07T03:32:23.892Z,99775.75
2018-11-07T03:34:50.827Z,99781.34
2018-11-07T03:37:17.798Z,99780.78
2018-11-07T03:39:44.770Z,99779.61
2018-11-07T03:42:11.683Z,99765.00
2018-11-07T03:44:38.599Z,99756.95
2018-11-07T03:47:06.612Z,99754.11
2018-11-07T03:49:33.532Z,99755.30
2018-11-07T03:52:00.455Z,99769.22
2018-11-07T03:54:27.426Z,99767.38
2018-11-07T03:56:54.351Z,99759.51
2018-11-07T03:59:21.315Z,99762.67
2018-11-07T04:01:48.255Z,99765.00
2018-11-07T04:04:15.186Z,99776.69
2018-11-07T04:06:42.151Z,99770.26
2018-11-07T04:09:10.675Z,99771.29
2018-11-07T04:11:37.643Z,99777.53
2018-11-07T04:14:04.612Z,99779.64
2018-11-07T04:16:31.551Z,99778.36
2018-11-07T04:18:58.499Z,99763.25
2018-11-07T04:21:25.430Z,99763.02
2018-11-07T04:23:57.191Z,99779.87
2018-11-07T04:26:24.135Z,99779.43
2018-11-07T04:28:51.139Z,99765.02
2018-11-07T04:31:18.075Z,99775.31
2018-11-07T04:33:44.978Z,99764.44
2018-11-07T04:36:12.052Z,99769.36
2018-11-07T04:38:39.124Z,99781.41
2018-11-07T04:41:06.231Z,99772.14
2018-11-07T04:43:34.804Z,99772.19
2018-11-07T04:46:01.284Z,99773.14
2018-11-07T04:48:28.307Z,99774.65
2018-11-07T04:50:56.408Z,99775.81
2018-11-07T04:53:23.445Z,99774.87
2018-11-07T04:55:50.532Z,99778.48
2018-11-07T04:58:17.517Z,99768.03
2018-11-07T05:00:44.618Z,99771.70
2018-11-07T05:03:13.294Z,99780.37
2018-11-07T05:05:41.236Z,99780.74
2018-11-07T05:08:08.402Z,99784.85
2018-11-07T05:10:37.470Z,99779.00
2018-11-07T05:13:04.567Z,99775.98
2018-11-07T05:15:31.674Z,99778.11
2018-11-07T05:17:58.778Z,99786.09
2018-11-07T05:20:25.912Z,99792.53
2018-11-07T05:22:52.971Z,99797.56
2018-11-07T05:25:20.086Z,99805.39
2018-11-07T05:27:47.121Z,99799.30
2018-11-07T05:30:15.194Z,99797.90
2018-11-07T05:32:42.246Z,99798.62
2018-11-07T05:35:09.330Z,99796.05
2018-11-07T05:37:36.460Z,99794.77
2018-11-07T05:40:03.517Z,99788.51
2018-11-07T05:42:31.293Z,99792.74
2018-11-07T05:44:58.756Z,99787.37
2018-11-07T05:47:25.725Z,99792.05
2018-11-07T05:49:52.819Z,99795.56
2018-11-07T05:52:19.733Z,99797.20
2018-11-07T05:54:47.080Z,99797.42
2018-11-07T05:57:14.141Z,99793.70
2018-11-07T05:59:41.240Z,99808.67
2018-11-07T06:02:08.962Z,99810.45
2018-11-07T06:04:36.012Z,99824.73
2018-11-07T06:07:03.065Z,99816.40
2018-11-07T06:09:30.020Z,99817.45
2018-11-07T06:11:57.045Z,99814.29
2018-11-07T06:14:24.096Z,99816.53
2018-11-07T06:16:51.169Z,99822.61
2018-11-07T06:19:18.152Z,99822.06
2018-11-07T06:21:45.219Z,99825.05
2018-11-07T06:24:12.475Z,99826.13
2018-11-07T06:26:39.573Z,99822.85
2018-11-07T06:29:06.742Z,99827.41
2018-11-07T06:31:33.960Z,99823.44
2018-11-07T06:34:01.050Z,99828.23
2018-11-07T06:36:28.073Z,99823.54
2018-11-07T06:38:55.094Z,99830.27
2018-11-07T06:41:22.181Z,99833.25
2018-11-07T06:43:49.280Z,99836.27
2018-11-07T06:46:17.244Z,99839.43
2018-11-07T06:48:44.361Z,99830.89
2018-11-07T06:51:12.426Z,99837.12
2018-11-07T06:53:39.544Z,99833.03
2018-11-07T06:56:06.715Z,99841.58
2018-11-07T06:58:33.799Z,99838.99
2018-11-07T07:01:01.879Z,99839.25
2018-11-07T07:03:28.897Z,99846.73
2018-11-07T07:05:57.019Z,99837.68
2018-11-07T07:08:24.023Z,99846.70
2018-11-07T07:10:50.939Z,99844.53
2018-11-07T07:13:18.043Z,99836.48
2018-11-07T07:15:45.093Z,99835.56
2018-11-07T07:18:12.272Z,99832.84
2018-11-07T07:20:40.127Z,99841.89
2018-11-07T07:23:07.206Z,99839.88
2018-11-07T07:25:34.217Z,99844.41
2018-11-07T07:28:01.091Z,99846.27
2018-11-07T07:30:28.225Z,99846.86
2018-11-07T07:32:55.850Z,99851.07
2018-11-07T07:35:23.253Z,99848.73
2018-11-07T07:37:50.327Z,99856.46
2018-11-07T07:40:17.258Z,99858.25
2018-11-07T07:42:44.727Z,99859.71
2018-11-07T07:45:14.502Z,99865.97
2018-11-07T07:47:41.969Z,99863.37
2018-11-07T07:50:10.746Z,99861.13
2018-11-07T07:52:37.711Z,99858.83
2018-11-07T07:55:05.173Z,99856.77
2018-11-07T07:57:32.107Z,99856.18
2018-11-07T07:59:59.075Z,99864.60
2018-11-07T08:02:26.015Z,99870.74
2018-11-07T08:04:52.947Z,99869.08
2018-11-07T08:07:19.911Z,99865.52
2018-11-07T08:09:46.838Z,99858.17
2018-11-07T08:12:13.771Z,99857.88
2018-11-07T08:14:40.780Z,99853.05
2018-11-07T08:17:07.680Z,99848.75
2018-11-07T08:19:34.608Z,99847.84
2018-11-07T08:22:01.555Z,99848.37
2018-11-07T08:24:28.495Z,99844.06
2018-11-07T08:26:55.454Z,99843.39
2018-11-07T08:29:22.383Z,99841.22
2018-11-07T08:31:49.333Z,99843.05
2018-11-07T08:34:16.299Z,99846.66
2018-11-07T08:36:43.231Z,99846.90
2018-11-07T08:39:11.691Z,99845.98
2018-11-07T08:41:38.713Z,99838.45
2018-11-07T08:44:05.654Z,99840.13
2018-11-07T08:46:32.522Z,99841.98
2018-11-07T08:48:59.571Z,99843.42
2018-11-07T08:51:26.446Z,99846.09
2018-11-07T08:53:53.371Z,99848.52
2018-11-07T08:56:20.324Z,99842.19
2018-11-07T08:58:47.264Z,99840.16
2018-11-07T09:01:14.289Z,99844.32
2018-11-07T09:03:41.163Z,99840.27
2018-11-07T09:06:08.091Z,99845.72
2018-11-07T09:08:35.045Z,99856.73
2018-11-07T09:11:01.990Z,99855.03
2018-11-07T09:13:28.930Z,99853.63
2018-11-07T09:15:55.879Z,99851.19
2018-11-07T09:18:22.815Z,99841.42
2018-11-07T09:20:49.764Z,99843.86
2018-11-07T09:23:16.707Z,99840.02
2018-11-07T09:25:43.671Z,99844.88
2018-11-07T09:28:10.596Z,99840.64
2018-11-07T09:30:37.555Z,99842.15
2018-11-07T09:33:04.659Z,99841.17
2018-11-07T09:35:31.568Z,99839.05
2018-11-07T09:37:58.519Z,99842.19
2018-11-07T09:40:25.422Z,99838.77
2018-11-07T09:42:52.366Z,99835.65
2018-11-07T09:45:20.537Z,99836.29
2018-11-07T09:47:47.690Z,99841.02
2018-11-07T09:50:15.459Z,99839.84
2018-11-07T09:52:42.619Z,99841.79
2018-11-07T09:55:10.871Z,99841.25
2018-11-07T09:57:38.173Z,99841.09
2018-11-07T10:00:07.561Z,99845.66
2018-11-07T10:02:34.507Z,99853.38
2018-11-07T10:05:01.475Z,99848.66
2018-11-07T10:07:28.407Z,99848.66
2018-11-07T10:09:55.371Z,99846.40
2018-11-07T10:12:22.319Z,99841.66
2018-11-07T10:14:49.212Z,99840.64
2018-11-07T10:17:16.151Z,99843.08
2018-11-07T10:19:43.111Z,99831.48
2018-11-07T10:22:10.064Z,99827.70
2018-11-07T10:24:37.012Z,99819.48
2018-11-07T10:27:04.237Z,99818.73
2018-11-07T10:29:31.287Z,99817.23
2018-11-07T10:31:58.067Z,99818.04
2018-11-07T10:34:25.005Z,99815.33
2018-11-07T10:36:51.919Z,99815.92
2018-11-07T10:39:18.940Z,99811.76
2018-11-07T10:41:45.815Z,99803.50
2018-11-07T10:44:12.780Z,99806.45
2018-11-07T10:46:39.703Z,99808.91
2018-11-07T10:49:06.696Z,99800.55
2018-11-07T10:51:33.583Z,99792.80
2018-11-07T10:54:00.568Z,99793.55
2018-11-07T10:56:27.489Z,99799.97
2018-11-07T10:58:54.424Z,99793.30
2018-11-07T11:01:27.165Z,99795.17
2018-11-07T11:03:54.073Z,99792.03
2018-11-07T11:06:21.010Z,99790.81
2018-11-07T11:08:47.923Z,99792.05
2018-11-07T11:11:14.948Z,99792.39
2018-11-07T11:13:41.855Z,99796.16
2018-11-07T11:16:08.771Z,99792.82
2018-11-07T11:18:35.721Z,99799.03
2018-11-07T11:21:02.672Z,99798.03
2018-11-07T11:23:29.596Z,99798.19
2018-11-07T11:25:56.566Z,99794.27
2018-11-07T11:28:23.507Z,99786.09
2018-11-07T11:30:50.434Z,99790.05
2018-11-07T11:33:17.413Z,99789.27
2018-11-07T11:35:44.330Z,99790.05
2018-11-07T11:38:11.297Z,99785.73
2018-11-07T11:40:38.301Z,99782.70
2018-11-07T11:43:05.182Z,99783.24
2018-11-07T11:45:32.098Z,99783.17
2018-11-07T11:47:59.082Z,99779.46
2018-11-07T11:50:26.003Z,99779.87
2018-11-07T11:52:52.946Z,99770.28
2018-11-07T11:55:19.895Z,99772.29
2018-11-07T11:57:47.188Z,99777.72
2018-11-07T12:00:15.689Z,99781.05
2018-11-07T12:02:42.914Z,99784.94
2018-11-07T12:05:11.239Z,99774.33
2018-11-07T12:07:38.395Z,99778.08
2018-11-07T12:10:10.531Z,99782.16
2018-11-07T12:12:37.420Z,99776.22
2018-11-07T12:15:04.738Z,99781.50
2018-11-07T12:17:31.618Z,99777.53
2018-11-07T12:19:58.543Z,99779.95
2018-11-07T12:22:25.500Z,99775.75
2018-11-07T12:24:52.444Z,99774.34
2018-11-07T12:27:19.392Z,99776.04
2018-11-07T12:29:46.327Z,99771.97
2018-11-07T12:32:13.263Z,99765.95
2018-11-07T12:34:40.216Z,99757.17
2018-11-07T12:37:07.170Z,99768.42
2018-11-07T12:39:34.152Z,99770.55
2018-11-07T12:42:01.050Z,99763.27
2018-11-07T12:44:27.999Z,99762.20
2018-11-07T12:46:54.975Z,99765.86
2018-11-07T12:49:21.890Z,99767.31
2018-11-07T12:51:48.826Z,99766.51
2018-11-07T12:54:15.774Z,99772.61
2018-11-07T12:56:42.719Z,99769.09
2018-11-07T12:59:10.587Z,99759.98
2018-11-07T13:01:37.526Z,99772.52
2018-11-07T13:04:05.402Z,99773.64
2018-11-07T13:06:32.332Z,99776.88
2018-11-07T13:09:00.568Z,99776.11
2018-11-07T13:11:29.498Z,99778.88
2018-11-07T13:13:56.405Z,99785.00
2018-11-07T13:16:23.313Z,99774.39
2018-11-07T13:18:50.239Z,99772.49
2018-11-07T13:21:17.193Z,99779.69
2018-11-07T13:23:44.114Z,99779.99
2018-11-07T13:26:11.075Z,99781.20
2018-11-07T13:28:42.465Z,99783.45
2018-11-07T13:31:09.938Z,99786.96
2018-11-07T13:33:37.998Z,99780.73
2018-11-07T13:36:05.935Z,99782.67
2018-11-07T13:38:33.296Z,99789.20
2018-11-07T13:40:59.942Z,99786.52
2018-11-07T13:43:26.767Z,99790.59
2018-11-07T13:45:53.717Z,99787.63
2018-11-07T13:48:20.731Z,99794.75
2018-11-07T13:50:47.747Z,99795.51
2018-11-07T13:53:14.880Z,99795.20
2018-11-07T13:55:42.486Z,99792.88
2018-11-07T13:58:09.620Z,99798.13
2018-11-07T14:00:36.839Z,99791.31
2018-11-07T14:03:04.368Z,99789.80
2018-11-07T14:05:31.309Z,99799.20
2018-11-07T14:07:58.146Z,99798.53
2018-11-07T14:10:25.642Z,99802.69
2018-11-07T14:12:52.958Z,99799.96
2018-11-07T14:15:19.851Z,99803.59
2018-11-07T14:17:46.803Z,99802.02
2018-11-07T14:20:13.726Z,99813.48
2018-11-07T14:22:40.755Z,99811.31
2018-11-07T14:25:08.297Z,99822.50
2018-11-07T14:27:35.291Z,99826.83
2018-11-07T14:30:02.094Z,99825.63
2018-11-07T14:32:29.387Z,99832.86
2018-11-07T14:34:56.270Z,99826.75
2018-11-07T14:37:23.138Z,99833.88
2018-11-07T14:39:50.083Z,99845.05
2018-11-07T14:42:17.020Z,99848.48
2018-11-07T14:44:43.955Z,99849.14
2018-11-07T14:47:10.913Z,99859.25
2018-11-07T14:49:37.739Z,99860.59
2018-11-07T14:52:04.911Z,99862.31
2018-11-07T14:54:32.783Z,99867.80
2018-11-07T14:56:59.743Z,99864.78
2018-11-07T14:59:26.663Z,99873.06
2018-11-07T15:01:54.518Z,99870.94
2018-11-07T15:04:21.423Z,99868.44
2018-11-07T15:06:48.303Z,99862.14
2018-11-07T15:09:15.143Z,99865.12
2018-11-07T15:11:42.046Z,99860.49
2018-11-07T15:14:08.843Z,99861.06
2018-11-07T15:16:35.785Z,99855.16
2018-11-07T15:19:02.739Z,99852.75
2018-11-07T15:21:29.563Z,99860.42
2018-11-07T15:23:56.422Z,99867.06
2018-11-07T15:26:23.350Z,99858.27
2018-11-07T15:28:50.202Z,99858.38
2018-11-07T15:31:17.147Z,99854.73
2018-11-07T15:33:43.986Z,99857.39
2018-11-07T15:36:11.018Z,99861.23
2018-11-07T15:38:37.867Z,99873.22
2018-11-07T15:41:04.730Z,99873.09
2018-11-07T15:43:31.744Z,99885.38
2018-11-07T15:45:58.615Z,99905.30
2018-11-07T15:48:25.560Z,99902.64
2018-11-07T15:50:58.383Z,99905.22
2018-11-07T15:53:25.287Z,99911.80
2018-11-07T15:55:52.230Z,99897.72
2018-11-07T15:58:20.110Z,99901.10
2018-11-07T16:00:47.055Z,99907.59
2018-11-07T16:03:17.877Z,99905.06
2018-11-07T16:05:44.862Z,99914.89
2018-11-07T16:08:11.807Z,99918.53
2018-11-07T16:10:38.742Z,99919.84
2018-11-07T16:13:05.699Z,99936.52
2018-11-07T16:15:32.708Z,99945.42
2018-11-07T16:17:59.628Z,99959.22
2018-11-07T16:20:26.486Z,99956.86
2018-11-07T16:22:53.507Z,99961.34
2018-11-07T16:25:20.436Z,99970.98
2018-11-07T16:27:47.368Z,99972.91
2018-11-07T16:30:15.791Z,99980.59
2018-11-07T16:32:42.767Z,99982.80
2018-11-07T16:35:10.619Z,99987.70
2018-11-07T16:37:37.579Z,99999.30
2018-11-07T16:40:06.287Z,100000.62
2018-11-07T16:42:33.242Z,100002.02
2018-11-07T16:45:00.127Z,100002.34
2018-11-07T16:47:27.126Z,100007.96
2018-11-07T16:49:53.918Z,100007.72
2018-11-07T16:52:20.866Z,100009.86
2018-11-07T16:54:47.803Z,100001.70
2018-11-07T16:57:14.693Z,100013.16
2018-11-07T16:59:41.593Z,100021.33
2018-11-07T17:02:08.535Z,100026.89
2018-11-07T17:04:35.577Z,100029.84
2018-11-07T17:07:02.443Z,100037.05
2018-11-07T17:09:29.387Z,100040.52
2018-11-07T17:11:57.243Z,100040.30
2018-11-07T17:14:24.187Z,100035.09
2018-11-07T17:16:51.131Z,100040.03
2018-11-07T17:19:18.087Z,100047.84
2018-11-07T17:21:45.019Z,100051.08
2018-11-07T17:24:12.116Z,100048.30
2018-11-07T17:26:38.984Z,100049.59
2018-11-07T17:29:05.856Z,100045.63
2018-11-07T17:31:32.772Z,100053.61
2018-11-07T17:33:59.683Z,100067.70
2018-11-07T17:36:26.594Z,100072.95
2018-11-07T17:38:53.527Z,100075.59
2018-11-07T17:41:20.550Z,100068.89
2018-11-07T17:43:47.425Z,100065.30
2018-11-07T17:46:14.366Z,100070.06
2018-11-07T17:48:41.379Z,100060.91
2018-11-07T17:51:08.250Z,100061.89
2018-11-07T17:53:35.195Z,100081.32
2018-11-07T17:56:02.055Z,100084.08
2018-11-07T17:58:28.987Z,100082.14
2018-11-07T18:00:55.943Z,100081.16
2018-11-07T18:03:22.885Z,100080.19
2018-11-07T18:05:49.847Z,100086.22
2018-11-07T18:08:16.773Z,100085.73
2018-11-07T18:10:43.714Z,100090.13
2018-11-07T18:13:10.659Z,100094.20
2018-11-07T18:15:37.623Z,100095.34
2018-11-07T18:18:04.873Z,100105.95
2018-11-07T18:20:31.891Z,100102.99
2018-11-07T18:22:58.790Z,100105.61
2018-11-07T18:25:25.710Z,100099.75
2018-11-07T18:27:52.643Z,100100.39
2018-11-07T18:30:19.595Z,100105.25
2018-11-07T18:32:47.181Z,100099.55
2018-11-07T18:35:15.631Z,100098.23
2018-11-07T18:37:42.775Z,100100.75
2018-11-07T18:40:11.083Z,100109.86
2018-11-07T18:42:38.239Z,100110.49
2018-11-07T18:45:07.386Z,100124.84
2018-11-07T18:47:34.330Z,100128.29
2018-11-07T18:50:01.200Z,100128.92
2018-11-07T18:52:28.132Z,100123.89
2018-11-07T18:54:55.078Z,100135.12
2018-11-07T18:57:22.043Z,100140.98
2018-11-07T18:59:48.971Z,100140.02
2018-11-07T19:02:15.915Z,100145.69
2018-11-07T19:04:43.883Z,100143.92
2018-11-07T19:07:10.834Z,100143.46
2018-11-07T19:09:37.859Z,100144.41
2018-11-07T19:12:04.843Z,100155.25
2018-11-07T19:14:31.759Z,100159.27
2018-11-07T19:16:58.707Z,100159.98
2018-11-07T19:19:25.646Z,100157.09
2018-11-07T19:21:53.563Z,100154.52
2018-11-07T19:24:21.519Z,100157.02
2018-11-07T19:26:48.564Z,100156.05
2018-11-07T19:29:15.386Z,100156.31
2018-11-07T19:31:42.318Z,100161.89
2018-11-07T19:34:09.574Z,100159.45
2018-11-07T19:36:36.520Z,100158.14
2018-11-07T19:39:06.167Z,100159.54
2018-11-07T19:41:33.078Z,100165.53
2018-11-07T19:44:00.039Z,100171.11
2018-11-07T19:46:26.979Z,100170.99
2018-11-07T19:48:53.900Z,100175.23
2018-11-07T19:51:20.856Z,100169.56
2018-11-07T19:53:47.803Z,100172.49
2018-11-07T19:56:14.730Z,100180.65
2018-11-07T19:58:41.691Z,100184.86
2018-11-07T20:01:08.619Z,100188.16
2018-11-07T20:03:35.565Z,100181.95
2018-11-07T20:06:04.759Z,100185.91
2018-11-07T20:08:31.599Z,100195.03
2018-11-07T20:10:59.445Z,100197.48
2018-11-07T20:13:26.317Z,100205.44
2018-11-07T20:15:53.318Z,100194.70
2018-11-07T20:18:20.223Z,100200.72
2018-11-07T20:20:47.153Z,100201.20
2018-11-07T20:23:14.142Z,100209.19
2018-11-07T20:25:41.032Z,100207.56
2018-11-07T20:28:07.974Z,100212.30
2018-11-07T20:30:34.927Z,100217.03
2018-11-07T20:33:01.867Z,100223.75
2018-11-07T20:35:28.907Z,100224.40
2018-11-07T20:37:56.686Z,100226.97
2018-11-07T20:40:23.628Z,100220.41
2018-11-07T20:42:50.582Z,100230.55
2018-11-07T20:45:17.826Z,100221.02
2018-11-07T20:47:45.815Z,100222.63
2018-11-07T20:50:14.995Z,100225.77
2018-11-07T20:52:43.362Z,100236.34
2018-11-07T20:55:11.235Z,100240.84
2018-11-07T20:57:38.282Z,100240.00
2018-11-07T21:00:11.670Z,100234.56
2018-11-07T21:02:38.923Z,100242.33
2018-11-07T21:05:06.082Z,100237.42
2018-11-07T21:07:32.914Z,100240.24
2018-11-07T21:09:59.863Z,100246.29
2018-11-07T21:12:26.802Z,100256.61
2018-11-07T21:14:53.675Z,100255.36
2018-11-07T21:17:20.595Z,100258.67
2018-11-07T21:19:47.473Z,100252.50
2018-11-07T21:22:14.410Z,100252.33
2018-11-07T21:27:08.317Z,100258.02
2018-11-07T21:29:36.136Z,100261.09
2018-11-07T21:32:03.031Z,100260.14
2018-11-07T21:34:30.091Z,100264.30
2018-11-07T21:36:56.991Z,100263.82
2018-11-07T21:39:23.937Z,100270.01
2018-11-07T21:41:50.890Z,100264.48
2018-11-07T21:44:17.814Z,100276.44
2018-11-07T21:46:44.754Z,100274.00
2018-11-07T21:49:11.699Z,100275.12
2018-11-07T21:51:38.682Z,100277.98
2018-11-07T21:54:05.614Z,100282.14
2018-11-07T21:56:32.486Z,100285.73
2018-11-07T21:59:00.438Z,100285.41
2018-11-07T22:01:27.368Z,100287.76
2018-11-07T22:03:54.293Z,100291.94
2018-11-07T22:06:22.173Z,100290.86
2018-11-07T22:08:49.102Z,100289.09
2018-11-07T22:11:16.046Z,100293.21
2018-11-07T22:13:43.010Z,100300.88
2018-11-07T22:16:09.938Z,100310.16
2018-11-07T22:18:36.883Z,100307.55
2018-11-07T22:21:04.134Z,100309.22
2018-11-07T22:23:31.084Z,100312.22
2018-11-07T22:25:58.032Z,100311.19
2018-11-07T22:28:25.064Z,100312.72
2018-11-07T22:30:51.918Z,100314.50
2018-11-07T22:33:18.855Z,100320.58
2018-11-07T22:35:45.818Z,100324.41
2018-11-07T22:38:12.754Z,100320.69
2018-11-07T22:40:40.626Z,100309.02
2018-11-07T22:43:07.569Z,100313.73
2018-11-07T22:45:34.510Z,100314.24
2018-11-07T22:48:01.463Z,100312.87
2018-11-07T22:50:28.391Z,100313.51
2018-11-07T22:52:55.346Z,100317.81
2018-11-07T22:55:22.282Z,100315.28
2018-11-07T22:57:49.247Z,100326.85
2018-11-07T23:00:22.471Z,100320.86
2018-11-07T23:02:51.618Z,100326.81
2018-11-07T23:05:18.583Z,100311.95
2018-11-07T23:07:45.607Z,100323.64
2018-11-07T23:10:12.687Z,100328.84
2018-11-07T23:12:39.610Z,100330.63
2018-11-07T23:15:06.742Z,100332.89
2018-11-07T23:17:33.710Z,100335.63
2018-11-07T23:20:00.671Z,100335.36
2018-11-07T23:22:27.591Z,100344.16
2018-11-07T23:24:54.539Z,100348.86
2018-11-07T23:27:21.514Z,100352.98
2018-11-07T23:29:48.442Z,100358.34
2018-11-07T23:32:15.371Z,100348.44
2018-11-07T23:34:42.194Z,100353.56
2018-11-07T23:37:09.062Z,100352.83
2018-11-07T23:39:36.014Z,100359.65
2018-11-07T23:42:02.982Z,100357.34
2018-11-07T23:44:29.889Z,100354.05
2018-11-07T23:46:56.826Z,100363.31
2018-11-07T23:49:23.774Z,100362.98
2018-11-07T23:51:50.727Z,100363.59
2018-11-07T23:54:19.410Z,100365.58
2018-11-07T23:56:46.351Z,100365.92
2018-11-07T23:59:14.255Z,100365.04
